sensor_id;sensor_type;location;lat;lon;timestamp;P1;durP1;ratioP1;P2;durP2;ratioP2
13014;SDS011;6573;57.696;11.950;2023-04-16T00:00:59;11.40;;;4.60;;
13014;SDS011;6573;57.696;11.950;2023-04-16T00:03:28;8.13;;;4.13;;
13014;SDS011;6573;57.696;11.950;2023-04-16T00:05:57;4.87;;;4.20;;
13014;SDS011;6573;57.696;11.950;2023-04-16T00:08:25;6.70;;;4.20;;
13014;SDS011;6573;57.696;11.950;2023-04-16T00:10:55;6.03;;;3.83;;
13014;SDS011;6573;57.696;11.950;2023-04-16T00:13:23;7.97;;;4.70;;
13014;SDS011;6573;57.696;11.950;2023-04-16T00:15:53;6.33;;;4.50;;
13014;SDS011;6573;57.696;11.950;2023-04-16T00:18:21;8.27;;;4.47;;
13014;SDS011;6573;57.696;11.950;2023-04-16T00:20:50;6.27;;;4.90;;
13014;SDS011;6573;57.696;11.950;2023-04-16T00:23:18;7.33;;;4.80;;
13014;SDS011;6573;57.696;11.950;2023-04-16T00:25:47;8.20;;;5.33;;
13014;SDS011;6573;57.696;11.950;2023-04-16T00:28:16;8.20;;;5.47;;
13014;SDS011;6573;57.696;11.950;2023-04-16T00:30:45;8.80;;;5.07;;
13014;SDS011;6573;57.696;11.950;2023-04-16T00:33:13;8.40;;;4.30;;
13014;SDS011;6573;57.696;11.950;2023-04-16T00:35:44;5.27;;;4.10;;
13014;SDS011;6573;57.696;11.950;2023-04-16T00:38:12;6.23;;;4.23;;
13014;SDS011;6573;57.696;11.950;2023-04-16T00:40:41;7.97;;;4.00;;
13014;SDS011;6573;57.696;11.950;2023-04-16T00:43:10;6.80;;;4.37;;
13014;SDS011;6573;57.696;11.950;2023-04-16T00:45:39;7.73;;;5.20;;
13014;SDS011;6573;57.696;11.950;2023-04-16T00:48:07;6.93;;;5.03;;
13014;SDS011;6573;57.696;11.950;2023-04-16T00:50:38;6.20;;;4.40;;
13014;SDS011;6573;57.696;11.950;2023-04-16T00:53:06;10.30;;;4.50;;
13014;SDS011;6573;57.696;11.950;2023-04-16T00:55:35;7.63;;;4.70;;
13014;SDS011;6573;57.696;11.950;2023-04-16T00:58:03;5.73;;;4.33;;
13014;SDS011;6573;57.696;11.950;2023-04-16T01:00:31;8.67;;;4.90;;
13014;SDS011;6573;57.696;11.950;2023-04-16T01:03:01;6.30;;;5.03;;
13014;SDS011;6573;57.696;11.950;2023-04-16T01:05:30;6.80;;;4.77;;
13014;SDS011;6573;57.696;11.950;2023-04-16T01:07:58;7.80;;;4.30;;
13014;SDS011;6573;57.696;11.950;2023-04-16T01:10:27;6.77;;;4.50;;
13014;SDS011;6573;57.696;11.950;2023-04-16T01:12:55;7.90;;;4.63;;
13014;SDS011;6573;57.696;11.950;2023-04-16T01:15:23;7.67;;;4.90;;
13014;SDS011;6573;57.696;11.950;2023-04-16T01:17:52;7.50;;;5.30;;
13014;SDS011;6573;57.696;11.950;2023-04-16T01:20:21;7.13;;;4.00;;
13014;SDS011;6573;57.696;11.950;2023-04-16T01:22:51;6.77;;;4.87;;
13014;SDS011;6573;57.696;11.950;2023-04-16T01:25:19;8.67;;;4.73;;
13014;SDS011;6573;57.696;11.950;2023-04-16T01:27:48;7.23;;;4.87;;
13014;SDS011;6573;57.696;11.950;2023-04-16T01:30:16;7.47;;;5.07;;
13014;SDS011;6573;57.696;11.950;2023-04-16T01:32:46;5.80;;;4.40;;
13014;SDS011;6573;57.696;11.950;2023-04-16T01:35:14;6.10;;;4.23;;
13014;SDS011;6573;57.696;11.950;2023-04-16T01:37:43;6.70;;;4.53;;
13014;SDS011;6573;57.696;11.950;2023-04-16T01:40:13;9.50;;;4.93;;
13014;SDS011;6573;57.696;11.950;2023-04-16T01:42:41;7.40;;;4.63;;
13014;SDS011;6573;57.696;11.950;2023-04-16T01:45:10;7.10;;;4.37;;
13014;SDS011;6573;57.696;11.950;2023-04-16T01:47:38;6.03;;;5.30;;
13014;SDS011;6573;57.696;11.950;2023-04-16T01:50:07;8.90;;;4.30;;
13014;SDS011;6573;57.696;11.950;2023-04-16T01:52:36;7.30;;;4.53;;
13014;SDS011;6573;57.696;11.950;2023-04-16T01:55:05;8.77;;;5.20;;
13014;SDS011;6573;57.696;11.950;2023-04-16T01:57:35;9.23;;;4.60;;
13014;SDS011;6573;57.696;11.950;2023-04-16T02:00:03;5.40;;;4.07;;
13014;SDS011;6573;57.696;11.950;2023-04-16T02:02:33;5.47;;;3.87;;
13014;SDS011;6573;57.696;11.950;2023-04-16T02:05:03;5.50;;;4.13;;
13014;SDS011;6573;57.696;11.950;2023-04-16T02:07:31;6.03;;;4.77;;
13014;SDS011;6573;57.696;11.950;2023-04-16T02:09:59;7.30;;;4.50;;
13014;SDS011;6573;57.696;11.950;2023-04-16T02:12:27;10.20;;;5.13;;
13014;SDS011;6573;57.696;11.950;2023-04-16T02:14:58;6.50;;;4.47;;
13014;SDS011;6573;57.696;11.950;2023-04-16T02:17:26;8.33;;;5.37;;
13014;SDS011;6573;57.696;11.950;2023-04-16T02:19:55;8.70;;;5.30;;
13014;SDS011;6573;57.696;11.950;2023-04-16T02:22:23;7.97;;;4.83;;
13014;SDS011;6573;57.696;11.950;2023-04-16T02:24:51;7.03;;;5.27;;
13014;SDS011;6573;57.696;11.950;2023-04-16T02:27:20;8.63;;;5.23;;
13014;SDS011;6573;57.696;11.950;2023-04-16T02:29:48;7.13;;;5.20;;
13014;SDS011;6573;57.696;11.950;2023-04-16T02:32:17;9.57;;;5.03;;
13014;SDS011;6573;57.696;11.950;2023-04-16T02:34:46;10.47;;;5.00;;
13014;SDS011;6573;57.696;11.950;2023-04-16T02:37:14;5.93;;;4.97;;
13014;SDS011;6573;57.696;11.950;2023-04-16T02:39:42;5.83;;;5.00;;
13014;SDS011;6573;57.696;11.950;2023-04-16T02:42:13;7.87;;;4.90;;
13014;SDS011;6573;57.696;11.950;2023-04-16T02:44:41;6.00;;;5.00;;
13014;SDS011;6573;57.696;11.950;2023-04-16T02:47:09;6.23;;;5.10;;
13014;SDS011;6573;57.696;11.950;2023-04-16T02:49:39;8.50;;;5.07;;
13014;SDS011;6573;57.696;11.950;2023-04-16T02:52:07;6.27;;;4.97;;
13014;SDS011;6573;57.696;11.950;2023-04-16T02:54:35;6.67;;;4.80;;
13014;SDS011;6573;57.696;11.950;2023-04-16T02:57:03;8.70;;;5.20;;
13014;SDS011;6573;57.696;11.950;2023-04-16T02:59:32;7.87;;;4.63;;
13014;SDS011;6573;57.696;11.950;2023-04-16T03:02:00;7.87;;;5.17;;
13014;SDS011;6573;57.696;11.950;2023-04-16T03:04:29;7.43;;;4.80;;
13014;SDS011;6573;57.696;11.950;2023-04-16T03:07:00;7.57;;;4.70;;
13014;SDS011;6573;57.696;11.950;2023-04-16T03:09:28;7.70;;;5.07;;
13014;SDS011;6573;57.696;11.950;2023-04-16T03:11:57;5.43;;;4.67;;
13014;SDS011;6573;57.696;11.950;2023-04-16T03:14:27;8.90;;;5.40;;
13014;SDS011;6573;57.696;11.950;2023-04-16T03:16:55;9.23;;;5.20;;
13014;SDS011;6573;57.696;11.950;2023-04-16T03:19:23;8.13;;;4.83;;
13014;SDS011;6573;57.696;11.950;2023-04-16T03:21:52;5.87;;;4.83;;
13014;SDS011;6573;57.696;11.950;2023-04-16T03:24:22;7.73;;;5.03;;
13014;SDS011;6573;57.696;11.950;2023-04-16T03:26:50;6.63;;;5.37;;
13014;SDS011;6573;57.696;11.950;2023-04-16T03:29:18;7.17;;;5.13;;
13014;SDS011;6573;57.696;11.950;2023-04-16T03:31:46;5.07;;;4.53;;
13014;SDS011;6573;57.696;11.950;2023-04-16T03:34:14;6.77;;;4.80;;
13014;SDS011;6573;57.696;11.950;2023-04-16T03:36:43;8.23;;;4.73;;
13014;SDS011;6573;57.696;11.950;2023-04-16T03:39:11;8.20;;;5.30;;
13014;SDS011;6573;57.696;11.950;2023-04-16T03:41:41;6.33;;;4.67;;
13014;SDS011;6573;57.696;11.950;2023-04-16T03:44:09;6.47;;;4.50;;
13014;SDS011;6573;57.696;11.950;2023-04-16T03:46:37;5.93;;;4.63;;
13014;SDS011;6573;57.696;11.950;2023-04-16T03:49:06;6.50;;;4.70;;
13014;SDS011;6573;57.696;11.950;2023-04-16T03:51:34;5.83;;;4.67;;
13014;SDS011;6573;57.696;11.950;2023-04-16T03:54:03;6.33;;;4.50;;
13014;SDS011;6573;57.696;11.950;2023-04-16T03:56:31;6.10;;;4.47;;
13014;SDS011;6573;57.696;11.950;2023-04-16T03:59:00;7.13;;;4.47;;
13014;SDS011;6573;57.696;11.950;2023-04-16T04:01:29;8.80;;;4.87;;
13014;SDS011;6573;57.696;11.950;2023-04-16T04:03:57;5.70;;;4.47;;
13014;SDS011;6573;57.696;11.950;2023-04-16T04:06:26;6.43;;;4.43;;
13014;SDS011;6573;57.696;11.950;2023-04-16T04:08:54;6.03;;;4.80;;
13014;SDS011;6573;57.696;11.950;2023-04-16T04:11:22;7.70;;;4.93;;
13014;SDS011;6573;57.696;11.950;2023-04-16T04:13:51;4.83;;;4.30;;
13014;SDS011;6573;57.696;11.950;2023-04-16T04:16:20;5.40;;;4.37;;
13014;SDS011;6573;57.696;11.950;2023-04-16T04:18:49;6.27;;;4.33;;
13014;SDS011;6573;57.696;11.950;2023-04-16T04:21:17;6.23;;;4.60;;
13014;SDS011;6573;57.696;11.950;2023-04-16T04:23:45;7.37;;;4.90;;
13014;SDS011;6573;57.696;11.950;2023-04-16T04:26:13;7.53;;;4.50;;
13014;SDS011;6573;57.696;11.950;2023-04-16T04:28:41;6.50;;;4.37;;
13014;SDS011;6573;57.696;11.950;2023-04-16T04:31:09;5.07;;;4.00;;
13014;SDS011;6573;57.696;11.950;2023-04-16T04:33:39;6.73;;;4.80;;
13014;SDS011;6573;57.696;11.950;2023-04-16T04:36:08;8.30;;;4.57;;
13014;SDS011;6573;57.696;11.950;2023-04-16T04:38:36;6.07;;;4.57;;
13014;SDS011;6573;57.696;11.950;2023-04-16T04:41:04;10.07;;;4.50;;
13014;SDS011;6573;57.696;11.950;2023-04-16T04:43:32;6.13;;;4.50;;
13014;SDS011;6573;57.696;11.950;2023-04-16T04:46:01;6.13;;;4.40;;
13014;SDS011;6573;57.696;11.950;2023-04-16T04:48:29;7.90;;;4.20;;
13014;SDS011;6573;57.696;11.950;2023-04-16T04:50:58;6.73;;;4.57;;
13014;SDS011;6573;57.696;11.950;2023-04-16T04:53:30;4.77;;;4.20;;
13014;SDS011;6573;57.696;11.950;2023-04-16T04:55:58;5.63;;;4.07;;
13014;SDS011;6573;57.696;11.950;2023-04-16T04:58:36;8.50;;;4.20;;
13014;SDS011;6573;57.696;11.950;2023-04-16T05:01:05;6.57;;;4.20;;
13014;SDS011;6573;57.696;11.950;2023-04-16T05:03:33;5.20;;;4.20;;
13014;SDS011;6573;57.696;11.950;2023-04-16T05:06:03;5.83;;;4.73;;
13014;SDS011;6573;57.696;11.950;2023-04-16T05:08:31;8.53;;;4.30;;
13014;SDS011;6573;57.696;11.950;2023-04-16T05:10:59;7.50;;;4.47;;
13014;SDS011;6573;57.696;11.950;2023-04-16T05:13:28;7.40;;;4.90;;
13014;SDS011;6573;57.696;11.950;2023-04-16T05:15:56;7.13;;;4.50;;
13014;SDS011;6573;57.696;11.950;2023-04-16T05:18:24;6.60;;;4.30;;
13014;SDS011;6573;57.696;11.950;2023-04-16T05:20:52;6.40;;;4.40;;
13014;SDS011;6573;57.696;11.950;2023-04-16T05:23:22;7.47;;;4.17;;
13014;SDS011;6573;57.696;11.950;2023-04-16T05:25:50;6.13;;;4.20;;
13014;SDS011;6573;57.696;11.950;2023-04-16T05:28:19;6.97;;;4.00;;
13014;SDS011;6573;57.696;11.950;2023-04-16T05:30:47;8.53;;;4.77;;
13014;SDS011;6573;57.696;11.950;2023-04-16T05:33:15;5.93;;;4.27;;
13014;SDS011;6573;57.696;11.950;2023-04-16T05:35:43;5.37;;;4.20;;
13014;SDS011;6573;57.696;11.950;2023-04-16T05:38:12;8.00;;;4.47;;
13014;SDS011;6573;57.696;11.950;2023-04-16T05:40:41;5.30;;;4.10;;
13014;SDS011;6573;57.696;11.950;2023-04-16T05:43:09;5.23;;;3.83;;
13014;SDS011;6573;57.696;11.950;2023-04-16T05:45:38;5.83;;;3.80;;
13014;SDS011;6573;57.696;11.950;2023-04-16T05:48:06;6.03;;;3.97;;
13014;SDS011;6573;57.696;11.950;2023-04-16T05:50:35;5.80;;;4.07;;
13014;SDS011;6573;57.696;11.950;2023-04-16T05:53:06;5.17;;;4.03;;
13014;SDS011;6573;57.696;11.950;2023-04-16T05:55:35;6.27;;;4.07;;
13014;SDS011;6573;57.696;11.950;2023-04-16T05:58:05;5.57;;;3.73;;
13014;SDS011;6573;57.696;11.950;2023-04-16T06:00:33;5.43;;;4.07;;
13014;SDS011;6573;57.696;11.950;2023-04-16T06:03:01;5.20;;;4.00;;
13014;SDS011;6573;57.696;11.950;2023-04-16T06:05:30;6.87;;;3.77;;
13014;SDS011;6573;57.696;11.950;2023-04-16T06:07:58;6.23;;;3.80;;
13014;SDS011;6573;57.696;11.950;2023-04-16T06:10:26;4.10;;;3.50;;
13014;SDS011;6573;57.696;11.950;2023-04-16T06:12:55;8.13;;;3.83;;
13014;SDS011;6573;57.696;11.950;2023-04-16T06:15:24;6.63;;;4.10;;
13014;SDS011;6573;57.696;11.950;2023-04-16T06:17:53;7.47;;;4.17;;
13014;SDS011;6573;57.696;11.950;2023-04-16T06:20:21;4.47;;;3.70;;
13014;SDS011;6573;57.696;11.950;2023-04-16T06:22:49;5.93;;;3.80;;
13014;SDS011;6573;57.696;11.950;2023-04-16T06:25:17;6.37;;;4.00;;
13014;SDS011;6573;57.696;11.950;2023-04-16T06:27:46;6.07;;;4.10;;
13014;SDS011;6573;57.696;11.950;2023-04-16T06:30:14;7.47;;;3.93;;
13014;SDS011;6573;57.696;11.950;2023-04-16T06:32:44;6.43;;;4.13;;
13014;SDS011;6573;57.696;11.950;2023-04-16T06:35:13;6.60;;;4.07;;
13014;SDS011;6573;57.696;11.950;2023-04-16T06:37:42;5.07;;;3.90;;
13014;SDS011;6573;57.696;11.950;2023-04-16T06:40:10;5.30;;;3.90;;
13014;SDS011;6573;57.696;11.950;2023-04-16T06:42:39;6.00;;;3.80;;
13014;SDS011;6573;57.696;11.950;2023-04-16T06:45:10;6.63;;;3.90;;
13014;SDS011;6573;57.696;11.950;2023-04-16T06:47:39;5.87;;;3.57;;
13014;SDS011;6573;57.696;11.950;2023-04-16T06:50:09;7.37;;;4.10;;
13014;SDS011;6573;57.696;11.950;2023-04-16T06:52:38;6.83;;;3.77;;
13014;SDS011;6573;57.696;11.950;2023-04-16T06:55:07;7.00;;;4.43;;
13014;SDS011;6573;57.696;11.950;2023-04-16T06:57:35;7.40;;;4.00;;
13014;SDS011;6573;57.696;11.950;2023-04-16T07:00:04;11.87;;;3.90;;
13014;SDS011;6573;57.696;11.950;2023-04-16T07:02:33;7.50;;;3.80;;
13014;SDS011;6573;57.696;11.950;2023-04-16T07:05:02;8.70;;;3.90;;
13014;SDS011;6573;57.696;11.950;2023-04-16T07:07:32;19.20;;;4.80;;
13014;SDS011;6573;57.696;11.950;2023-04-16T07:10:00;6.23;;;3.90;;
13014;SDS011;6573;57.696;11.950;2023-04-16T07:12:28;9.33;;;3.93;;
13014;SDS011;6573;57.696;11.950;2023-04-16T07:14:57;5.37;;;4.03;;
13014;SDS011;6573;57.696;11.950;2023-04-16T07:17:25;6.57;;;3.60;;
13014;SDS011;6573;57.696;11.950;2023-04-16T07:19:53;5.40;;;3.77;;
13014;SDS011;6573;57.696;11.950;2023-04-16T07:22:22;6.30;;;3.97;;
13014;SDS011;6573;57.696;11.950;2023-04-16T07:24:51;7.97;;;4.30;;
13014;SDS011;6573;57.696;11.950;2023-04-16T07:27:19;5.60;;;3.80;;
13014;SDS011;6573;57.696;11.950;2023-04-16T07:29:48;6.37;;;4.10;;
13014;SDS011;6573;57.696;11.950;2023-04-16T07:32:16;7.63;;;4.07;;
13014;SDS011;6573;57.696;11.950;2023-04-16T07:34:45;7.50;;;4.00;;
13014;SDS011;6573;57.696;11.950;2023-04-16T07:37:13;9.43;;;4.10;;
13014;SDS011;6573;57.696;11.950;2023-04-16T07:39:41;5.80;;;4.00;;
13014;SDS011;6573;57.696;11.950;2023-04-16T07:42:11;6.70;;;3.47;;
13014;SDS011;6573;57.696;11.950;2023-04-16T07:44:39;8.80;;;3.70;;
13014;SDS011;6573;57.696;11.950;2023-04-16T07:47:07;6.10;;;3.73;;
13014;SDS011;6573;57.696;11.950;2023-04-16T07:49:35;5.03;;;3.60;;
13014;SDS011;6573;57.696;11.950;2023-04-16T07:52:04;5.13;;;3.97;;
13014;SDS011;6573;57.696;11.950;2023-04-16T07:54:32;9.40;;;4.17;;
13014;SDS011;6573;57.696;11.950;2023-04-16T07:57:00;5.37;;;3.47;;
13014;SDS011;6573;57.696;11.950;2023-04-16T07:59:30;7.57;;;3.93;;
13014;SDS011;6573;57.696;11.950;2023-04-16T08:01:58;9.57;;;3.80;;
13014;SDS011;6573;57.696;11.950;2023-04-16T08:04:27;6.50;;;3.87;;
13014;SDS011;6573;57.696;11.950;2023-04-16T08:06:55;10.47;;;4.20;;
13014;SDS011;6573;57.696;11.950;2023-04-16T08:09:25;6.07;;;3.50;;
13014;SDS011;6573;57.696;11.950;2023-04-16T08:11:55;6.57;;;3.60;;
13014;SDS011;6573;57.696;11.950;2023-04-16T08:14:23;9.67;;;4.10;;
13014;SDS011;6573;57.696;11.950;2023-04-16T08:16:53;7.43;;;4.07;;
13014;SDS011;6573;57.696;11.950;2023-04-16T08:19:21;8.10;;;3.63;;
13014;SDS011;6573;57.696;11.950;2023-04-16T08:21:49;6.20;;;3.83;;
13014;SDS011;6573;57.696;11.950;2023-04-16T08:24:17;10.67;;;3.93;;
13014;SDS011;6573;57.696;11.950;2023-04-16T08:26:45;9.83;;;3.67;;
13014;SDS011;6573;57.696;11.950;2023-04-16T08:29:14;6.57;;;3.50;;
13014;SDS011;6573;57.696;11.950;2023-04-16T08:31:42;5.83;;;3.50;;
13014;SDS011;6573;57.696;11.950;2023-04-16T08:34:12;7.30;;;3.40;;
13014;SDS011;6573;57.696;11.950;2023-04-16T08:36:40;10.57;;;4.00;;
13014;SDS011;6573;57.696;11.950;2023-04-16T08:39:08;6.40;;;3.50;;
13014;SDS011;6573;57.696;11.950;2023-04-16T08:41:37;6.83;;;3.80;;
13014;SDS011;6573;57.696;11.950;2023-04-16T08:44:07;25.87;;;4.43;;
13014;SDS011;6573;57.696;11.950;2023-04-16T08:46:41;5.30;;;3.53;;
13014;SDS011;6573;57.696;11.950;2023-04-16T08:49:13;5.57;;;3.67;;
13014;SDS011;6573;57.696;11.950;2023-04-16T08:51:44;8.83;;;4.07;;
13014;SDS011;6573;57.696;11.950;2023-04-16T08:54:20;9.47;;;3.70;;
13014;SDS011;6573;57.696;11.950;2023-04-16T08:56:57;6.23;;;3.70;;
13014;SDS011;6573;57.696;11.950;2023-04-16T08:59:27;6.73;;;3.67;;
13014;SDS011;6573;57.696;11.950;2023-04-16T09:01:56;10.30;;;4.40;;
13014;SDS011;6573;57.696;11.950;2023-04-16T09:04:27;7.23;;;3.60;;
13014;SDS011;6573;57.696;11.950;2023-04-16T09:06:57;4.87;;;3.90;;
13014;SDS011;6573;57.696;11.950;2023-04-16T09:09:25;5.67;;;3.50;;
13014;SDS011;6573;57.696;11.950;2023-04-16T09:11:54;8.97;;;3.70;;
13014;SDS011;6573;57.696;11.950;2023-04-16T09:14:23;5.27;;;3.70;;
13014;SDS011;6573;57.696;11.950;2023-04-16T09:16:52;10.03;;;4.30;;
13014;SDS011;6573;57.696;11.950;2023-04-16T09:19:21;6.63;;;3.77;;
13014;SDS011;6573;57.696;11.950;2023-04-16T09:21:51;6.03;;;4.00;;
13014;SDS011;6573;57.696;11.950;2023-04-16T09:24:20;7.10;;;4.00;;
13014;SDS011;6573;57.696;11.950;2023-04-16T09:26:49;5.63;;;3.93;;
13014;SDS011;6573;57.696;11.950;2023-04-16T09:29:33;8.10;;;3.40;;
13014;SDS011;6573;57.696;11.950;2023-04-16T09:32:03;8.93;;;3.90;;
13014;SDS011;6573;57.696;11.950;2023-04-16T09:34:33;11.23;;;4.03;;
13014;SDS011;6573;57.696;11.950;2023-04-16T09:37:16;6.20;;;3.47;;
13014;SDS011;6573;57.696;11.950;2023-04-16T09:39:51;6.63;;;4.00;;
13014;SDS011;6573;57.696;11.950;2023-04-16T09:42:21;7.23;;;3.90;;
13014;SDS011;6573;57.696;11.950;2023-04-16T09:44:51;6.53;;;3.90;;
13014;SDS011;6573;57.696;11.950;2023-04-16T09:47:19;6.73;;;3.57;;
13014;SDS011;6573;57.696;11.950;2023-04-16T09:49:49;6.13;;;3.13;;
13014;SDS011;6573;57.696;11.950;2023-04-16T09:52:19;6.83;;;3.80;;
13014;SDS011;6573;57.696;11.950;2023-04-16T09:54:49;6.47;;;3.70;;
13014;SDS011;6573;57.696;11.950;2023-04-16T09:57:19;7.33;;;4.00;;
13014;SDS011;6573;57.696;11.950;2023-04-16T09:59:48;15.90;;;4.47;;
13014;SDS011;6573;57.696;11.950;2023-04-16T10:02:20;6.67;;;4.03;;
13014;SDS011;6573;57.696;11.950;2023-04-16T10:04:53;6.80;;;3.90;;
13014;SDS011;6573;57.696;11.950;2023-04-16T10:07:26;8.03;;;4.10;;
13014;SDS011;6573;57.696;11.950;2023-04-16T10:09:55;7.60;;;3.63;;
13014;SDS011;6573;57.696;11.950;2023-04-16T10:12:25;10.03;;;4.00;;
13014;SDS011;6573;57.696;11.950;2023-04-16T10:14:54;5.70;;;3.53;;
13014;SDS011;6573;57.696;11.950;2023-04-16T10:17:22;7.43;;;3.60;;
13014;SDS011;6573;57.696;11.950;2023-04-16T10:19:51;7.90;;;3.97;;
13014;SDS011;6573;57.696;11.950;2023-04-16T10:22:21;10.47;;;3.87;;
13014;SDS011;6573;57.696;11.950;2023-04-16T10:24:50;7.73;;;3.67;;
13014;SDS011;6573;57.696;11.950;2023-04-16T10:27:20;6.30;;;3.23;;
13014;SDS011;6573;57.696;11.950;2023-04-16T10:29:49;6.57;;;3.60;;
13014;SDS011;6573;57.696;11.950;2023-04-16T10:32:18;6.07;;;3.80;;
13014;SDS011;6573;57.696;11.950;2023-04-16T10:34:47;5.70;;;3.80;;
13014;SDS011;6573;57.696;11.950;2023-04-16T10:37:15;7.77;;;3.80;;
13014;SDS011;6573;57.696;11.950;2023-04-16T10:39:44;6.60;;;3.57;;
13014;SDS011;6573;57.696;11.950;2023-04-16T10:42:14;7.23;;;3.40;;
13014;SDS011;6573;57.696;11.950;2023-04-16T10:44:42;5.87;;;3.27;;
13014;SDS011;6573;57.696;11.950;2023-04-16T10:47:12;7.90;;;3.83;;
13014;SDS011;6573;57.696;11.950;2023-04-16T10:49:41;4.67;;;3.10;;
13014;SDS011;6573;57.696;11.950;2023-04-16T10:52:10;5.63;;;4.00;;
13014;SDS011;6573;57.696;11.950;2023-04-16T10:54:40;8.03;;;4.00;;
13014;SDS011;6573;57.696;11.950;2023-04-16T10:57:09;4.60;;;3.30;;
13014;SDS011;6573;57.696;11.950;2023-04-16T10:59:43;5.83;;;3.57;;
13014;SDS011;6573;57.696;11.950;2023-04-16T11:02:12;4.70;;;3.23;;
13014;SDS011;6573;57.696;11.950;2023-04-16T11:04:42;6.07;;;3.40;;
13014;SDS011;6573;57.696;11.950;2023-04-16T11:07:15;6.03;;;3.57;;
13014;SDS011;6573;57.696;11.950;2023-04-16T11:09:51;6.93;;;3.23;;
13014;SDS011;6573;57.696;11.950;2023-04-16T11:12:22;4.63;;;3.30;;
13014;SDS011;6573;57.696;11.950;2023-04-16T11:14:57;7.97;;;3.30;;
13014;SDS011;6573;57.696;11.950;2023-04-16T11:17:28;7.80;;;3.40;;
13014;SDS011;6573;57.696;11.950;2023-04-16T11:19:57;13.65;;;4.55;;
13014;SDS011;6573;57.696;11.950;2023-04-16T11:22:25;7.47;;;3.10;;
13014;SDS011;6573;57.696;11.950;2023-04-16T11:24:54;6.50;;;3.13;;
13014;SDS011;6573;57.696;11.950;2023-04-16T11:27:23;6.67;;;3.17;;
13014;SDS011;6573;57.696;11.950;2023-04-16T11:30:00;7.00;;;3.40;;
13014;SDS011;6573;57.696;11.950;2023-04-16T11:32:30;6.90;;;3.40;;
13014;SDS011;6573;57.696;11.950;2023-04-16T11:35:00;4.53;;;3.00;;
13014;SDS011;6573;57.696;11.950;2023-04-16T11:37:30;6.47;;;3.10;;
13014;SDS011;6573;57.696;11.950;2023-04-16T11:39:59;6.00;;;3.90;;
13014;SDS011;6573;57.696;11.950;2023-04-16T11:42:29;9.03;;;3.47;;
13014;SDS011;6573;57.696;11.950;2023-04-16T11:44:59;4.23;;;3.00;;
13014;SDS011;6573;57.696;11.950;2023-04-16T11:47:28;9.73;;;6.03;;
13014;SDS011;6573;57.696;11.950;2023-04-16T11:49:57;16.67;;;5.10;;
13014;SDS011;6573;57.696;11.950;2023-04-16T11:52:41;6.30;;;3.30;;
13014;SDS011;6573;57.696;11.950;2023-04-16T11:55:10;4.50;;;2.80;;
13014;SDS011;6573;57.696;11.950;2023-04-16T11:57:38;2.57;;;1.60;;
13014;SDS011;6573;57.696;11.950;2023-04-16T12:00:08;7.93;;;2.90;;
13014;SDS011;6573;57.696;11.950;2023-04-16T12:02:39;3.43;;;2.80;;
13014;SDS011;6573;57.696;11.950;2023-04-16T12:05:25;8.93;;;2.90;;
13014;SDS011;6573;57.696;11.950;2023-04-16T12:07:54;7.10;;;3.50;;
13014;SDS011;6573;57.696;11.950;2023-04-16T12:10:23;6.53;;;2.83;;
13014;SDS011;6573;57.696;11.950;2023-04-16T12:12:52;6.90;;;2.70;;
13014;SDS011;6573;57.696;11.950;2023-04-16T12:15:22;5.63;;;3.00;;
13014;SDS011;6573;57.696;11.950;2023-04-16T12:17:51;12.13;;;2.90;;
13014;SDS011;6573;57.696;11.950;2023-04-16T12:20:37;5.47;;;3.00;;
13014;SDS011;6573;57.696;11.950;2023-04-16T12:23:07;4.40;;;2.80;;
13014;SDS011;6573;57.696;11.950;2023-04-16T12:25:35;5.63;;;3.33;;
13014;SDS011;6573;57.696;11.950;2023-04-16T12:28:04;5.20;;;2.97;;
13014;SDS011;6573;57.696;11.950;2023-04-16T12:30:33;9.17;;;3.10;;
13014;SDS011;6573;57.696;11.950;2023-04-16T12:33:17;4.83;;;2.40;;
13014;SDS011;6573;57.696;11.950;2023-04-16T12:35:46;7.93;;;3.20;;
13014;SDS011;6573;57.696;11.950;2023-04-16T12:38:15;6.80;;;2.90;;
13014;SDS011;6573;57.696;11.950;2023-04-16T12:40:43;4.73;;;2.90;;
13014;SDS011;6573;57.696;11.950;2023-04-16T12:43:12;5.43;;;2.90;;
13014;SDS011;6573;57.696;11.950;2023-04-16T12:45:42;5.33;;;3.30;;
13014;SDS011;6573;57.696;11.950;2023-04-16T12:48:10;10.80;;;3.67;;
13014;SDS011;6573;57.696;11.950;2023-04-16T12:50:38;7.97;;;3.37;;
13014;SDS011;6573;57.696;11.950;2023-04-16T12:53:09;6.40;;;3.17;;
13014;SDS011;6573;57.696;11.950;2023-04-16T12:55:38;10.20;;;3.60;;
13014;SDS011;6573;57.696;11.950;2023-04-16T12:58:07;24.50;;;4.00;;
13014;SDS011;6573;57.696;11.950;2023-04-16T13:00:38;10.33;;;3.30;;
13014;SDS011;6573;57.696;11.950;2023-04-16T13:03:08;3.87;;;2.53;;
13014;SDS011;6573;57.696;11.950;2023-04-16T13:05:36;6.07;;;2.97;;
13014;SDS011;6573;57.696;11.950;2023-04-16T13:08:05;4.00;;;2.90;;
13014;SDS011;6573;57.696;11.950;2023-04-16T13:10:33;6.07;;;3.10;;
13014;SDS011;6573;57.696;11.950;2023-04-16T13:13:02;6.93;;;3.50;;
13014;SDS011;6573;57.696;11.950;2023-04-16T13:15:30;14.43;;;3.20;;
13014;SDS011;6573;57.696;11.950;2023-04-16T13:17:58;17.87;;;3.87;;
13014;SDS011;6573;57.696;11.950;2023-04-16T13:20:28;8.90;;;2.80;;
13014;SDS011;6573;57.696;11.950;2023-04-16T13:22:56;4.57;;;2.50;;
13014;SDS011;6573;57.696;11.950;2023-04-16T13:25:24;6.93;;;3.10;;
13014;SDS011;6573;57.696;11.950;2023-04-16T13:27:53;6.33;;;3.17;;
13014;SDS011;6573;57.696;11.950;2023-04-16T13:30:22;11.90;;;3.20;;
13014;SDS011;6573;57.696;11.950;2023-04-16T13:32:52;7.97;;;3.30;;
13014;SDS011;6573;57.696;11.950;2023-04-16T13:35:21;35.27;;;4.70;;
13014;SDS011;6573;57.696;11.950;2023-04-16T13:37:51;6.13;;;2.53;;
13014;SDS011;6573;57.696;11.950;2023-04-16T13:40:19;5.27;;;2.80;;
13014;SDS011;6573;57.696;11.950;2023-04-16T13:42:47;8.33;;;3.43;;
13014;SDS011;6573;57.696;11.950;2023-04-16T13:45:16;9.13;;;2.70;;
13014;SDS011;6573;57.696;11.950;2023-04-16T13:47:45;5.30;;;2.63;;
13014;SDS011;6573;57.696;11.950;2023-04-16T13:50:14;12.77;;;3.40;;
13014;SDS011;6573;57.696;11.950;2023-04-16T13:52:42;8.07;;;2.40;;
13014;SDS011;6573;57.696;11.950;2023-04-16T13:55:12;8.47;;;2.40;;
13014;SDS011;6573;57.696;11.950;2023-04-16T13:57:44;5.47;;;2.70;;
13014;SDS011;6573;57.696;11.950;2023-04-16T14:00:14;6.50;;;2.90;;
13014;SDS011;6573;57.696;11.950;2023-04-16T14:02:45;7.57;;;2.47;;
13014;SDS011;6573;57.696;11.950;2023-04-16T14:05:14;4.77;;;2.60;;
13014;SDS011;6573;57.696;11.950;2023-04-16T14:07:42;6.10;;;2.23;;
13014;SDS011;6573;57.696;11.950;2023-04-16T14:10:11;8.43;;;2.50;;
13014;SDS011;6573;57.696;11.950;2023-04-16T14:12:41;5.80;;;2.60;;
13014;SDS011;6573;57.696;11.950;2023-04-16T14:15:10;3.77;;;2.23;;
13014;SDS011;6573;57.696;11.950;2023-04-16T14:17:40;3.20;;;2.10;;
13014;SDS011;6573;57.696;11.950;2023-04-16T14:20:11;2.60;;;2.10;;
13014;SDS011;6573;57.696;11.950;2023-04-16T14:22:40;5.77;;;2.60;;
13014;SDS011;6573;57.696;11.950;2023-04-16T14:25:09;2.63;;;2.10;;
13014;SDS011;6573;57.696;11.950;2023-04-16T14:27:38;7.47;;;2.33;;
13014;SDS011;6573;57.696;11.950;2023-04-16T14:30:08;5.40;;;2.40;;
13014;SDS011;6573;57.696;11.950;2023-04-16T14:32:36;3.93;;;2.40;;
13014;SDS011;6573;57.696;11.950;2023-04-16T14:35:04;6.97;;;3.30;;
13014;SDS011;6573;57.696;11.950;2023-04-16T14:37:34;2.73;;;2.20;;
13014;SDS011;6573;57.696;11.950;2023-04-16T14:40:02;9.70;;;2.30;;
13014;SDS011;6573;57.696;11.950;2023-04-16T14:42:34;14.20;;;2.73;;
13014;SDS011;6573;57.696;11.950;2023-04-16T14:45:05;5.40;;;2.63;;
13014;SDS011;6573;57.696;11.950;2023-04-16T14:47:34;3.73;;;2.57;;
13014;SDS011;6573;57.696;11.950;2023-04-16T14:50:11;5.63;;;2.20;;
13014;SDS011;6573;57.696;11.950;2023-04-16T14:52:40;3.93;;;2.57;;
13014;SDS011;6573;57.696;11.950;2023-04-16T14:55:08;6.27;;;2.60;;
13014;SDS011;6573;57.696;11.950;2023-04-16T14:57:38;6.50;;;2.63;;